createdAt,value
2022-08-05T00:02:20.366Z,18.08
2022-08-05T00:07:59.663Z,17.97
2022-08-05T00:12:55.699Z,17.94
2022-08-05T00:17:59.093Z,17.92
2022-08-05T00:23:13.129Z,17.87
2022-08-05T00:28:16.296Z,17.83
2022-08-05T00:34:53.546Z,17.82
2022-08-05T00:38:56.392Z,17.74
2022-08-05T00:44:02.456Z,17.65
2022-08-05T00:49:05.240Z,17.60
2022-08-05T00:54:14.004Z,17.58
2022-08-05T00:59:16.798Z,17.55
2022-08-05T01:04:20.107Z,17.50
2022-08-05T01:09:30.524Z,17.43
2022-08-05T01:15:05.615Z,17.41
2022-08-05T01:20:59.628Z,17.36
2022-08-05T01:26:19.872Z,17.30
2022-08-05T01:31:42.781Z,17.27
2022-08-05T01:36:53.933Z,17.23
2022-08-05T01:41:58.618Z,17.22
2022-08-05T01:47:01.712Z,17.19
2022-08-05T01:52:17.524Z,17.16
2022-08-05T01:58:11.869Z,17.14
2022-08-05T02:02:56.180Z,17.10
2022-08-05T02:08:01.416Z,17.04
2022-08-05T02:13:17.721Z,17.05
2022-08-05T02:18:32.147Z,17.03
2022-08-05T02:23:39.736Z,16.96
2022-08-05T02:28:45.950Z,16.88
2022-08-05T02:33:57.204Z,16.90
2022-08-05T02:39:02.104Z,16.93
2022-08-05T02:44:12.219Z,16.91
2022-08-05T02:49:16.879Z,16.84
2022-08-05T02:54:36.072Z,16.81
2022-08-05T02:59:50.340Z,16.75
2022-08-05T03:04:55.459Z,16.74
2022-08-05T03:09:58.265Z,16.72
2022-08-05T03:15:06.745Z,16.72
2022-08-05T03:20:10.770Z,16.69
2022-08-05T03:25:33.939Z,16.74
2022-08-05T03:30:41.081Z,16.73
2022-08-05T03:35:45.953Z,16.71
2022-08-05T03:40:48.964Z,16.73
2022-08-05T03:45:57.329Z,16.79
2022-08-05T03:52:39.292Z,16.89
2022-08-05T03:56:50.046Z,16.98
2022-08-05T04:09:39.010Z,17.29
2022-08-05T04:14:57.737Z,17.42
2022-08-05T04:20:01.528Z,17.53
2022-08-05T04:25:06.149Z,17.68
2022-08-05T04:30:14.156Z,17.82
2022-08-05T04:35:19.783Z,17.93
2022-08-05T04:40:22.984Z,18.02
2022-08-05T04:45:47.825Z,18.15
2022-08-05T04:51:01.601Z,18.28
2022-08-05T04:56:15.419Z,18.46
2022-08-05T05:02:06.686Z,18.68
2022-08-05T05:06:57.870Z,18.87
2022-08-05T05:12:03.054Z,19.04
2022-08-05T05:17:07.469Z,19.21
2022-08-05T05:22:24.382Z,19.40
2022-08-05T05:27:44.994Z,19.63
2022-08-05T05:32:49.223Z,19.85
2022-08-05T05:38:01.836Z,20.07
2022-08-05T05:43:05.017Z,20.28
2022-08-05T05:48:11.499Z,20.49
2022-08-05T05:53:22.386Z,20.67
2022-08-05T05:58:30.273Z,20.86
2022-08-05T06:03:54.016Z,21.09
2022-08-05T06:08:59.394Z,21.31
2022-08-05T06:14:02.284Z,21.50
2022-08-05T06:19:07.333Z,21.66
2022-08-05T06:24:11.929Z,21.78
2022-08-05T06:29:23.477Z,21.88
2022-08-05T06:34:31.812Z,22.05
2022-08-05T06:39:34.699Z,22.19
2022-08-05T06:44:37.548Z,22.33
2022-08-05T06:50:01.676Z,22.50
2022-08-05T06:55:03.346Z,22.70
2022-08-05T07:00:07.746Z,22.84
2022-08-05T07:05:14.381Z,23.00
2022-08-05T07:10:21.779Z,23.17
2022-08-05T07:16:01.089Z,23.31
2022-08-05T07:21:07.750Z,23.46
2022-08-05T07:26:13.377Z,23.62
2022-08-05T07:31:17.810Z,23.79
2022-08-05T07:36:40.862Z,23.96
2022-08-05T07:42:13.474Z,24.14
2022-08-05T07:47:07.976Z,24.34
2022-08-05T07:52:12.975Z,24.49
2022-08-05T07:57:58.724Z,24.61
2022-08-05T08:03:14.038Z,24.78
2022-08-05T08:08:01.133Z,24.93
2022-08-05T08:13:04.250Z,25.09
2022-08-05T08:18:14.348Z,25.29
2022-08-05T08:24:01.541Z,25.47
2022-08-05T08:28:59.471Z,25.64
2022-08-05T08:34:04.092Z,25.83
2022-08-05T08:39:15.074Z,26.01
2022-08-05T08:45:23.884Z,26.19
2022-08-05T08:50:11.319Z,26.37
2022-08-05T08:55:13.179Z,26.62
2022-08-05T09:00:19.290Z,26.77
2022-08-05T09:05:38.495Z,26.94
2022-08-05T09:10:46.917Z,27.12
2022-08-05T09:15:49.928Z,27.34
2022-08-05T09:20:52.748Z,27.63
2022-08-05T09:26:20.729Z,27.89
2022-08-05T09:32:42.089Z,28.22
2022-08-05T09:36:56.412Z,28.45
2022-08-05T09:42:04.507Z,28.59
2022-08-05T09:47:16.480Z,28.78
2022-08-05T09:52:32.032Z,29.02
2022-08-05T09:57:43.413Z,29.59
2022-08-05T10:02:48.449Z,30.31
2022-08-05T10:08:35.203Z,31.01
2022-08-05T10:13:45.779Z,31.87
2022-08-05T10:18:51.446Z,32.85
2022-08-05T10:23:59.646Z,33.63
2022-08-05T10:29:03.135Z,34.45
2022-08-05T10:34:08.075Z,35.09
2022-08-05T10:39:25.139Z,35.68
2022-08-05T10:44:46.029Z,36.31
2022-08-05T10:50:32.364Z,37.13
2022-08-05T10:56:03.705Z,37.67
2022-08-05T11:01:02.910Z,38.22
2022-08-05T11:06:16.184Z,38.94
2022-08-05T11:11:44.882Z,39.58
2022-08-05T11:17:58.066Z,40.28
2022-08-05T11:22:53.980Z,41.08
2022-08-05T11:28:12.014Z,41.85
2022-08-05T11:33:46.322Z,42.66
2022-08-05T11:38:54.633Z,42.60
2022-08-05T11:44:07.167Z,43.43
2022-08-05T11:49:16.897Z,44.01
2022-08-05T11:54:34.020Z,44.17
2022-08-05T11:59:49.339Z,44.15
2022-08-05T12:04:59.545Z,44.85
2022-08-05T12:10:09.189Z,45.17
2022-08-05T12:15:37.895Z,45.53
2022-08-05T12:20:41.852Z,45.96
2022-08-05T12:25:56.772Z,46.52
2022-08-05T12:31:01.944Z,46.60
2022-08-05T12:36:09.401Z,47.10
2022-08-05T12:41:14.293Z,47.25
2022-08-05T12:46:31.830Z,47.13
2022-08-05T12:52:12.629Z,47.76
2022-08-05T12:57:15.776Z,48.65
2022-08-05T13:02:30.318Z,48.33
2022-08-05T13:07:59.435Z,47.96
2022-08-05T13:12:57.975Z,48.32
2022-08-05T13:18:02.195Z,48.08
2022-08-05T13:23:07.315Z,47.68
2022-08-05T13:28:10.809Z,48.67
2022-08-05T13:33:14.438Z,49.67
2022-08-05T13:38:41.943Z,49.81
2022-08-05T13:43:55.213Z,50.51
2022-08-05T13:49:00.648Z,51.10
2022-08-05T13:54:11.947Z,50.60
2022-08-05T13:59:20.277Z,50.43
2022-08-05T14:04:43.013Z,50.35
2022-08-05T14:09:53.152Z,50.48
2022-08-05T14:14:56.140Z,51.18
2022-08-05T14:20:04.652Z,51.40
2022-08-05T14:25:21.380Z,51.42
2022-08-05T14:30:26.611Z,50.89
2022-08-05T14:35:37.390Z,50.78
2022-08-05T14:40:54.237Z,51.01
2022-08-05T14:45:56.991Z,50.71
2022-08-05T14:50:59.711Z,49.31
2022-08-05T14:56:06.920Z,46.92
2022-08-05T15:01:11.207Z,45.09
2022-08-05T15:06:19.416Z,43.06
2022-08-05T15:11:50.978Z,41.37
2022-08-05T15:16:55.424Z,39.76
2022-08-05T15:22:01.263Z,38.70
2022-08-05T15:27:04.335Z,37.68
2022-08-05T15:32:12.061Z,36.94
2022-08-05T15:37:19.412Z,36.28
2022-08-05T15:42:54.817Z,35.73
2022-08-05T15:48:02.286Z,35.21
2022-08-05T15:53:05.889Z,34.84
2022-08-05T15:58:16.484Z,34.31
2022-08-05T16:03:19.870Z,34.03
2022-08-05T16:08:24.051Z,33.79
2022-08-05T16:13:34.171Z,33.50
2022-08-05T16:18:51.646Z,33.16
2022-08-05T16:23:58.046Z,32.88
2022-08-05T16:29:04.315Z,32.59
2022-08-05T16:34:11.253Z,32.32
2022-08-05T16:39:14.457Z,32.04
2022-08-05T16:44:17.940Z,31.79
2022-08-05T16:49:22.829Z,31.57
2022-08-05T16:54:31.964Z,31.29
2022-08-05T17:00:01.254Z,31.02
2022-08-05T17:04:58.720Z,30.70
2022-08-05T17:10:02.858Z,30.40
2022-08-05T17:15:07.578Z,30.10
2022-08-05T17:20:14.790Z,29.84
2022-08-05T17:25:33.496Z,29.60
2022-08-05T17:30:50.579Z,29.35
2022-08-05T17:36:07.904Z,29.14
2022-08-05T17:42:16.518Z,28.91
2022-08-05T17:46:35.889Z,28.66
2022-08-05T17:51:40.180Z,28.44
2022-08-05T17:56:44.686Z,28.22
2022-08-05T18:01:51.831Z,28.01
2022-08-05T18:06:54.855Z,27.76
2022-08-05T18:12:05.227Z,27.49
2022-08-05T18:18:00.202Z,27.24
2022-08-05T18:22:46.208Z,26.98
2022-08-05T18:27:54.216Z,26.74
2022-08-05T18:33:00.290Z,26.52
2022-08-05T18:38:03.976Z,26.30
2022-08-05T18:43:09.210Z,26.08
2022-08-05T18:48:31.652Z,25.92
2022-08-05T18:53:45.672Z,25.78
2022-08-05T18:58:54.736Z,25.62
2022-08-05T19:04:05.390Z,25.46
2022-08-05T19:09:08.836Z,25.30
2022-08-05T19:14:44.465Z,25.16
2022-08-05T19:19:34.372Z,24.98
2022-08-05T19:24:37.232Z,24.85
2022-08-05T19:29:57.961Z,24.74
2022-08-05T19:35:05.689Z,24.65
2022-08-05T19:40:10.750Z,24.52
2022-08-05T19:45:14.469Z,24.39
2022-08-05T19:50:17.572Z,24.33
2022-08-05T19:56:13.728Z,24.21
2022-08-05T20:00:43.162Z,24.07
2022-08-05T20:05:51.415Z,23.96
2022-08-05T20:10:55.248Z,23.86
2022-08-05T20:15:58.085Z,23.79
2022-08-05T20:21:06.656Z,23.70
2022-08-05T20:26:15.901Z,23.60
2022-08-05T20:31:28.395Z,23.45
2022-08-05T20:36:43.216Z,23.36
2022-08-05T20:41:49.213Z,23.34
2022-08-05T20:46:52.033Z,23.30
2022-08-05T20:51:56.004Z,23.21
2022-08-05T20:57:00.747Z,23.13
2022-08-05T21:02:06.518Z,23.06
2022-08-05T21:07:09.660Z,23.04
2022-08-05T21:12:35.186Z,22.99
2022-08-05T21:17:37.977Z,22.89
2022-08-05T21:22:40.809Z,22.83
2022-08-05T21:27:47.522Z,22.82
2022-08-05T21:32:50.689Z,22.77
2022-08-05T21:37:53.612Z,22.68
2022-08-05T21:42:59.011Z,22.64
2022-08-05T21:48:06.555Z,22.64
2022-08-05T21:53:16.683Z,22.61
2022-08-05T21:58:28.802Z,22.53
2022-08-05T22:03:52.560Z,22.46
2022-08-05T22:08:56.168Z,22.43
2022-08-05T22:14:31.327Z,22.41
2022-08-05T22:19:57.391Z,22.35
2022-08-05T22:25:04.139Z,22.32
2022-08-05T22:30:13.342Z,22.25
2022-08-05T22:35:16.242Z,22.21
2022-08-05T22:40:20.447Z,22.20
2022-08-05T22:45:26.383Z,22.19
2022-08-05T22:50:29.117Z,22.13
2022-08-05T22:55:37.123Z,22.07
2022-08-05T23:00:54.665Z,21.99
2022-08-05T23:06:00.003Z,21.96
2022-08-05T23:11:04.025Z,21.93
2022-08-05T23:16:06.879Z,21.88
2022-08-05T23:21:11.324Z,21.83
2022-08-05T23:26:20.228Z,21.80
2022-08-05T23:31:24.528Z,21.79
2022-08-05T23:36:28.340Z,21.77
2022-08-05T23:41:34.255Z,21.70
2022-08-05T23:46:40.382Z,21.67
2022-08-05T23:52:05.770Z,21.66
2022-08-05T23:57:08.761Z,21.59
